DLH6RK EDDF-LIRN
Flight info
| Callsign | DLH6RK |
|---|---|
| Flight time | N/A |
| Altitude | 35000 |
| Route | CINDY Z74 LAMPU DCT NOMBO Y161 RIDAR DCT KONIN DCT BERAS DCT LIKDA DCT BAKOR DCT BELOV DCT SUXUB DCT ERIKA |
| Aircraft | A321/M-SDE2E3FGIJ1LORWXYZ/HB1 |
Departure
| Time | N/A |
|---|---|
| Airport | Frankfurt Main Airport (EDDF) |
Arrival
| Time | 2026-05-04 11:27 |
|---|---|
| Airport | Naples International Airport (LIRN) |
| Time | Latitude | Longitude | Altitude | Speed | Heading |
|---|---|---|---|---|---|
| 2026-05-04 09:56 | 49.30762 | 9.70981 | 25213 ft | 415 kts | 139° |
| 2026-05-04 09:56 | 49.28717 | 9.74121 | 25519 ft | 417 kts | 138° |
| 2026-05-04 09:56 | 49.26673 | 9.77288 | 25809 ft | 419 kts | 138° |
| 2026-05-04 09:56 | 49.24626 | 9.80468 | 26083 ft | 420 kts | 138° |
| 2026-05-04 09:57 | 49.22571 | 9.83666 | 26350 ft | 422 kts | 138° |
| 2026-05-04 09:57 | 49.20515 | 9.86869 | 26611 ft | 423 kts | 138° |
| 2026-05-04 09:57 | 49.18448 | 9.90087 | 26864 ft | 425 kts | 138° |
| 2026-05-04 09:57 | 49.16383 | 9.93307 | 27206 ft | 424 kts | 138° |
| 2026-05-04 09:58 | 49.14314 | 9.96529 | 27434 ft | 425 kts | 138° |
| 2026-05-04 09:58 | 49.12235 | 9.99765 | 27662 ft | 427 kts | 138° |
| 2026-05-04 09:58 | 49.10152 | 10.03003 | 27826 ft | 430 kts | 138° |
| 2026-05-04 10:00 | 48.94879 | 10.25091 | 29178 ft | 437 kts | 141° |
| 2026-05-04 10:00 | 48.92680 | 10.28186 | 29369 ft | 437 kts | 141° |
| 2026-05-04 10:02 | 48.77252 | 10.50973 | 30466 ft | 448 kts | 137° |
| 2026-05-04 10:04 | 48.62104 | 10.75063 | 31477 ft | 454 kts | 139° |
| 2026-05-04 10:04 | 48.59756 | 10.78234 | 31605 ft | 453 kts | 144° |
| 2026-05-04 10:04 | 48.57252 | 10.80998 | 31754 ft | 450 kts | 150° |
| 2026-05-04 10:04 | 48.54553 | 10.83395 | 31863 ft | 449 kts | 155° |
| 2026-05-04 10:05 | 48.51790 | 10.85592 | 32007 ft | 450 kts | 156° |
| 2026-05-04 10:05 | 48.49017 | 10.87785 | 32139 ft | 451 kts | 156° |
| 2026-05-04 10:05 | 48.46237 | 10.89977 | 32245 ft | 452 kts | 156° |
| 2026-05-04 10:05 | 48.43445 | 10.92174 | 32408 ft | 452 kts | 156° |
| 2026-05-04 10:06 | 48.40653 | 10.94367 | 32569 ft | 452 kts | 156° |
| 2026-05-04 10:06 | 48.37865 | 10.96554 | 32754 ft | 451 kts | 156° |
| 2026-05-04 10:06 | 48.35081 | 10.98734 | 32920 ft | 451 kts | 156° |
| 2026-05-04 10:08 | 48.18356 | 11.11758 | 33814 ft | 452 kts | 156° |
| 2026-05-04 10:08 | 48.15562 | 11.13923 | 33966 ft | 452 kts | 156° |
| 2026-05-04 10:08 | 48.12775 | 11.16079 | 34123 ft | 451 kts | 156° |
| 2026-05-04 10:08 | 48.09987 | 11.18232 | 34264 ft | 451 kts | 156° |
| 2026-05-04 10:09 | 48.07230 | 11.20359 | 34427 ft | 451 kts | 156° |
| 2026-05-04 10:09 | 48.04447 | 11.22503 | 34579 ft | 451 kts | 156° |
| 2026-05-04 10:09 | 48.01655 | 11.24651 | 34750 ft | 450 kts | 156° |
| 2026-05-04 10:09 | 47.98876 | 11.26787 | 34961 ft | 450 kts | 156° |
| 2026-05-04 10:10 | 47.93293 | 11.31065 | 35045 ft | 451 kts | 156° |
| 2026-05-04 10:10 | 47.87711 | 11.35338 | 35052 ft | 450 kts | 156° |
| 2026-05-04 10:11 | 47.82159 | 11.39726 | 35055 ft | 452 kts | 154° |
| 2026-05-04 10:11 | 47.76644 | 11.44192 | 35052 ft | 452 kts | 154° |
| 2026-05-04 10:12 | 47.71121 | 11.48668 | 35051 ft | 452 kts | 154° |
| 2026-05-04 10:12 | 47.65603 | 11.53138 | 35049 ft | 452 kts | 154° |
| 2026-05-04 10:13 | 47.60081 | 11.57608 | 35047 ft | 452 kts | 154° |
| 2026-05-04 10:13 | 47.55107 | 11.61630 | 35044 ft | 452 kts | 154° |
| 2026-05-04 10:14 | 47.49587 | 11.66087 | 35043 ft | 452 kts | 154° |
| 2026-05-04 10:16 | 47.29411 | 11.76314 | 35049 ft | 438 kts | 184° |
| 2026-05-04 10:16 | 47.26358 | 11.76192 | 35048 ft | 439 kts | 184° |
| 2026-05-04 10:16 | 47.20261 | 11.75928 | 35053 ft | 438 kts | 185° |
| 2026-05-04 10:17 | 47.14168 | 11.75643 | 35059 ft | 438 kts | 184° |
| 2026-05-04 10:19 | 46.89784 | 11.74401 | 35098 ft | 438 kts | 185° |
| 2026-05-04 10:19 | 46.83685 | 11.74076 | 35107 ft | 438 kts | 184° |
| 2026-05-04 10:20 | 46.78612 | 11.73805 | 35112 ft | 438 kts | 184° |
| 2026-05-04 10:20 | 46.72415 | 11.73472 | 35123 ft | 439 kts | 184° |
| 2026-05-04 10:21 | 46.66311 | 11.73149 | 35146 ft | 439 kts | 184° |
| 2026-05-04 10:21 | 46.60244 | 11.73829 | 35155 ft | 443 kts | 171° |
| 2026-05-04 10:22 | 46.51355 | 11.77666 | 35181 ft | 445 kts | 164° |
| 2026-05-04 10:23 | 46.45475 | 11.80519 | 35221 ft | 446 kts | 163° |
| 2026-05-04 10:25 | 46.21975 | 11.92025 | 35251 ft | 446 kts | 163° |
| 2026-05-04 10:25 | 46.16099 | 11.94894 | 35244 ft | 446 kts | 163° |
| 2026-05-04 10:26 | 46.10211 | 11.97763 | 35231 ft | 446 kts | 163° |
| 2026-05-04 10:26 | 46.04366 | 12.00605 | 35215 ft | 446 kts | 163° |
| 2026-05-04 10:27 | 45.98484 | 12.03458 | 35187 ft | 446 kts | 163° |
| 2026-05-04 10:27 | 45.92601 | 12.06305 | 35163 ft | 446 kts | 163° |
| 2026-05-04 10:28 | 45.86716 | 12.09147 | 35149 ft | 446 kts | 163° |
| 2026-05-04 10:28 | 45.80830 | 12.11982 | 35135 ft | 446 kts | 163° |
| 2026-05-04 10:29 | 45.74936 | 12.14814 | 35131 ft | 447 kts | 163° |
| 2026-05-04 10:29 | 45.70039 | 12.17163 | 35128 ft | 447 kts | 163° |
| 2026-05-04 10:30 | 45.64141 | 12.19986 | 35114 ft | 447 kts | 163° |
| 2026-05-04 10:30 | 45.58233 | 12.22807 | 35111 ft | 448 kts | 163° |
| 2026-05-04 10:31 | 45.52316 | 12.25626 | 35111 ft | 448 kts | 163° |
| 2026-05-04 10:32 | 45.31601 | 12.35445 | 35111 ft | 450 kts | 163° |
| 2026-05-04 10:33 | 45.25660 | 12.38247 | 35111 ft | 450 kts | 163° |
| 2026-05-04 10:33 | 45.19710 | 12.41047 | 35112 ft | 451 kts | 163° |
| 2026-05-04 10:34 | 45.13742 | 12.43850 | 35113 ft | 451 kts | 164° |
| 2026-05-04 10:34 | 45.07780 | 12.46642 | 35113 ft | 452 kts | 164° |
| 2026-05-04 10:35 | 45.01810 | 12.49433 | 35114 ft | 452 kts | 164° |
| 2026-05-04 10:35 | 44.95841 | 12.52216 | 35115 ft | 452 kts | 164° |
| 2026-05-04 10:36 | 44.89865 | 12.54997 | 35115 ft | 452 kts | 164° |
| 2026-05-04 10:36 | 44.83890 | 12.57772 | 35115 ft | 453 kts | 164° |
| 2026-05-04 10:37 | 44.77901 | 12.60546 | 35118 ft | 453 kts | 164° |
| 2026-05-04 10:37 | 44.71911 | 12.63315 | 35116 ft | 453 kts | 164° |
| 2026-05-04 10:39 | 44.51009 | 12.73137 | 35118 ft | 454 kts | 162° |
| 2026-05-04 10:40 | 44.45112 | 12.76276 | 35119 ft | 454 kts | 161° |
| 2026-05-04 10:40 | 44.39215 | 12.79426 | 35126 ft | 454 kts | 161° |
| 2026-05-04 10:41 | 44.33346 | 12.82562 | 35130 ft | 454 kts | 161° |
| 2026-05-04 10:41 | 44.27448 | 12.85711 | 35132 ft | 454 kts | 161° |
| 2026-05-04 10:42 | 44.21529 | 12.88866 | 35135 ft | 455 kts | 161° |
| 2026-05-04 10:42 | 44.15617 | 12.92012 | 35141 ft | 455 kts | 161° |
| 2026-05-04 10:43 | 44.09704 | 12.95152 | 35142 ft | 455 kts | 161° |
| 2026-05-04 10:45 | 43.85975 | 13.07684 | 35145 ft | 457 kts | 162° |
| 2026-05-04 10:45 | 43.80026 | 13.10808 | 35145 ft | 457 kts | 162° |
| 2026-05-04 10:46 | 43.74084 | 13.13922 | 35144 ft | 457 kts | 162° |
| 2026-05-04 10:46 | 43.68178 | 13.17010 | 35143 ft | 457 kts | 162° |
| 2026-05-04 10:47 | 43.62220 | 13.20118 | 35142 ft | 457 kts | 162° |
| 2026-05-04 10:47 | 43.56270 | 13.23216 | 35142 ft | 457 kts | 162° |
| 2026-05-04 10:49 | 43.32420 | 13.35566 | 35147 ft | 458 kts | 162° |
| 2026-05-04 10:50 | 43.26460 | 13.38635 | 35151 ft | 458 kts | 162° |
| 2026-05-04 10:52 | 43.02594 | 13.50863 | 35163 ft | 458 kts | 162° |
| 2026-05-04 10:52 | 42.96623 | 13.53906 | 35165 ft | 458 kts | 162° |
| 2026-05-04 10:54 | 42.72701 | 13.66035 | 34820 ft | 457 kts | 162° |
| 2026-05-04 10:56 | 42.52218 | 13.76339 | 33069 ft | 444 kts | 162° |
| 2026-05-04 10:56 | 42.49325 | 13.77788 | 32819 ft | 443 kts | 162° |
| 2026-05-04 10:56 | 42.46438 | 13.79232 | 32576 ft | 441 kts | 162° |
| 2026-05-04 10:57 | 42.43592 | 13.80656 | 32334 ft | 431 kts | 163° |
| 2026-05-04 10:57 | 42.40794 | 13.82052 | 31923 ft | 426 kts | 163° |
| 2026-05-04 10:57 | 42.38030 | 13.83428 | 31542 ft | 421 kts | 163° |
| 2026-05-04 10:57 | 42.35300 | 13.84787 | 31148 ft | 416 kts | 163° |
| 2026-05-04 10:58 | 42.32596 | 13.86132 | 30764 ft | 413 kts | 163° |
| 2026-05-04 10:58 | 42.29909 | 13.87467 | 30379 ft | 410 kts | 163° |
| 2026-05-04 10:58 | 42.27238 | 13.88794 | 29997 ft | 407 kts | 164° |
| 2026-05-04 10:58 | 42.24591 | 13.90107 | 29621 ft | 404 kts | 164° |
| 2026-05-04 10:59 | 42.21955 | 13.91412 | 29242 ft | 402 kts | 163° |
| 2026-05-04 10:59 | 42.19334 | 13.92711 | 28873 ft | 400 kts | 163° |
| 2026-05-04 10:59 | 42.16733 | 13.93998 | 28503 ft | 398 kts | 163° |
| 2026-05-04 10:59 | 42.14137 | 13.95282 | 28129 ft | 395 kts | 163° |
| 2026-05-04 11:00 | 42.11562 | 13.96555 | 27761 ft | 393 kts | 163° |
| 2026-05-04 11:01 | 41.93803 | 14.05300 | 24469 ft | 395 kts | 161° |
| 2026-05-04 11:02 | 41.91238 | 14.06516 | 24143 ft | 387 kts | 164° |
| 2026-05-04 11:02 | 41.88619 | 14.07233 | 23427 ft | 384 kts | 175° |
| 2026-05-04 11:05 | 41.56495 | 14.11721 | 19442 ft | 339 kts | 133° |
| 2026-05-04 11:06 | 41.54881 | 14.13997 | 19134 ft | 336 kts | 133° |
| 2026-05-04 11:06 | 41.53289 | 14.16263 | 18831 ft | 334 kts | 133° |
| 2026-05-04 11:06 | 41.51709 | 14.18525 | 18529 ft | 331 kts | 133° |
| 2026-05-04 11:06 | 41.50147 | 14.20771 | 18235 ft | 330 kts | 133° |
| 2026-05-04 11:08 | 41.39263 | 14.35604 | 15716 ft | 290 kts | 139° |
| 2026-05-04 11:10 | 41.28642 | 14.46346 | 12611 ft | 268 kts | 149° |
| 2026-05-04 11:12 | 41.19406 | 14.40391 | 11006 ft | 261 kts | 239° |
| 2026-05-04 11:12 | 41.18190 | 14.38633 | 10537 ft | 260 kts | 215° |
| 2026-05-04 11:12 | 41.16524 | 14.37759 | 10056 ft | 259 kts | 188° |
| 2026-05-04 11:12 | 41.14748 | 14.37939 | 9557 ft | 258 kts | 162° |
| 2026-05-04 11:13 | 41.13177 | 14.39044 | 9108 ft | 255 kts | 147° |
| 2026-05-04 11:13 | 41.11694 | 14.40312 | 9022 ft | 256 kts | 147° |
| 2026-05-04 11:13 | 41.10215 | 14.41627 | 8930 ft | 255 kts | 139° |
| 2026-05-04 11:13 | 41.09167 | 14.43473 | 8649 ft | 250 kts | 112° |
| 2026-05-04 11:14 | 41.10212 | 14.49823 | 7584 ft | 244 kts | 58° |
| 2026-05-04 11:16 | 41.16148 | 14.62577 | 7006 ft | 244 kts | 57° |
| 2026-05-04 11:16 | 41.17038 | 14.64497 | 7009 ft | 244 kts | 57° |
| 2026-05-04 11:16 | 41.17927 | 14.66413 | 7009 ft | 244 kts | 57° |
| 2026-05-04 11:17 | 41.18814 | 14.68327 | 7010 ft | 244 kts | 57° |
| 2026-05-04 11:17 | 41.19707 | 14.70254 | 7014 ft | 244 kts | 58° |
| 2026-05-04 11:19 | 41.13274 | 14.79702 | 7011 ft | 238 kts | 194° |
| 2026-05-04 11:19 | 41.11821 | 14.78715 | 7017 ft | 236 kts | 222° |
| 2026-05-04 11:19 | 41.10856 | 14.76978 | 7035 ft | 234 kts | 241° |
| 2026-05-04 11:19 | 41.10048 | 14.75104 | 7016 ft | 234 kts | 240° |
| 2026-05-04 11:20 | 41.09254 | 14.73219 | 7015 ft | 234 kts | 242° |
| 2026-05-04 11:20 | 41.08446 | 14.71351 | 7014 ft | 234 kts | 240° |
| 2026-05-04 11:20 | 41.07604 | 14.69502 | 7009 ft | 234 kts | 239° |
| 2026-05-04 11:20 | 41.06749 | 14.67664 | 7003 ft | 234 kts | 239° |
| 2026-05-04 11:22 | 41.00619 | 14.54602 | 4959 ft | 236 kts | 239° |
| 2026-05-04 11:22 | 40.99758 | 14.52772 | 4601 ft | 231 kts | 239° |
| 2026-05-04 11:23 | 40.98927 | 14.51002 | 4253 ft | 221 kts | 238° |
| 2026-05-04 11:23 | 40.98133 | 14.49314 | 3927 ft | 211 kts | 238° |
| 2026-05-04 11:24 | 40.93971 | 14.40469 | 2260 ft | 165 kts | 238° |
| 2026-05-04 11:25 | 40.93378 | 14.39209 | 2026 ft | 158 kts | 238° |
| 2026-05-04 11:25 | 40.92804 | 14.37990 | 1791 ft | 155 kts | 238° |
| 2026-05-04 11:25 | 40.92237 | 14.36777 | 1578 ft | 154 kts | 238° |
| 2026-05-04 11:26 | 40.91130 | 14.34355 | 1123 ft | 154 kts | 236° |
| 2026-05-04 11:27 | 40.88235 | 14.28432 | 309 ft | 23 kts | 210° |
| 2026-05-04 11:28 | 40.88106 | 14.28341 | 309 ft | 16 kts | 208° |
| 2026-05-04 11:28 | 40.88055 | 14.28220 | 309 ft | 16 kts | 244° |
| 2026-05-04 11:28 | 40.87984 | 14.28143 | 309 ft | 15 kts | 148° |
| 2026-05-04 11:28 | 40.87929 | 14.28215 | 309 ft | 7 kts | 136° |
| 2026-05-04 11:29 | 40.87890 | 14.28227 | 309 ft | 1 kts | 184° |
| 2026-05-04 11:29 | 40.87888 | 14.28227 | 309 ft | 0 kts | 184° |